METAR v bližini

 

LJLJ - Ljubljana/Brnik, Slovenia
Oddaljenost od postaje: W 41km
Podatki zajeti: 23/08/2019 02:30
Pretežno oblačno
Pretežno oblačno
 Veter iz smeri spremenljiv
Veter: spremenljiv 4 km/h
Temperatura: 17°C
Rosišče: 16°C
Vlažnost: 94%
Tlak: 1025 hPa
Oblačnost: Pretežno oblačno
Vidljivost: 10 km
Podrobnosti o oblakih: Rahlo oblačno 1006 m
Pretežno oblačno 1219 m
Pretežno oblačno 4572 m
2019/08/23 00:30 LJLJ 230030Z VRB02KT 9999 FEW033 BKN040 BKN150 17/16 Q1025 TEMPO SHRA
LJMB - Maribor, Slovenia
Oddaljenost od postaje: NE 63km
Podatki zajeti: 23/08/2019 02:30
Rahlo dežuje, Plohe, Oblačno
Rahlo dežuje, Plohe, Oblačno
 Veter iz smeri spremenljiv
Veter: spremenljiv 4 km/h
Temperatura: 19°C
Rosišče: 16°C
Vlažnost: 83%
Tlak: 1025 hPa
Stanje: Rahlo dežuje, Plohe
Oblačnost: Oblačno
Vidljivost: 10 km
Podrobnosti o oblakih: Delno oblačno 1067 m
Rahlo oblačno 1280 m
Oblačno 2743 m
2019/08/23 00:30 LJMB 230030Z VRB02KT 9999 -SHRA SCT035 FEW042CB OVC090 19/16 Q1025 RETS
 
LJPZ - Portoroz, Slovenia
Oddaljenost od postaje: SW 130km
Podatki zajeti: 23/08/2019 02:30
Delno oblačno
Delno oblačno
 Veter iz smeri spremenljiv
Veter: spremenljiv 2 km/h
Temperatura: 23°C
Rosišče: 17°C
Vlažnost: 69%
Tlak: 1019 hPa
Oblačnost: Delno oblačno
Vidljivost: 10 km
2019/08/23 00:30 LJPZ 230030Z AUTO VRB01KT 9999 NSC 23/17 Q1019
LJCE - Cerklje, Slovenia
Oddaljenost od postaje: ESE 49km
Podatki zajeti: 23/08/2019 02:30
Delno oblačno
Delno oblačno
 Veter iz smeri calm
Veter: Calm
Temperatura: 19°C
Rosišče: 18°C
Vlažnost: 94%
Tlak: 1024 hPa
Oblačnost: Delno oblačno
Vidljivost: 10 km
2019/08/23 00:30 LJCE 230030Z AUTO 00000KT 9999 NSC 19/18 Q1024
 
LDZA - Zagreb/Pleso, Croatia
Oddaljenost od postaje: ESE 96km
Podatki zajeti: 23/08/2019 02:30
Oblačno
Oblačno
 Veter iz smeri calm
Veter: Calm
Temperatura: 20°C
Rosišče: 17°C
Vlažnost: 83%
Tlak: 1023 hPa
Oblačnost: Oblačno
Vidljivost: 10 km
Podrobnosti o oblakih: Oblačno 1463 m
2019/08/23 00:30 LDZA 230030Z 00000KT 9999 OVC048 20/17 Q1023 NOSIG
LDRI - Rijeka/Omisalj, Croatia
Oddaljenost od postaje: SSW 109km
Podatki zajeti: 23/08/2019 02:30
Delno oblačno
Delno oblačno
 Veter iz smeri ENE
Veter: ENE 15 km/h
Temperatura: 25°C
Rosišče: 15°C
Vlažnost: 54%
Tlak: 1020 hPa
Oblačnost: Delno oblačno
Vidljivost: 10 km
Podrobnosti o oblakih: Delno oblačno 1524 m
2019/08/23 00:30 LDRI 230030Z 06008KT 030V090 9999 SCT050 25/15 Q1020
 
LDPL - Pula, Croatia
Oddaljenost od postaje: SSW 164km
Podatki zajeti: 23/08/2019 02:30
Jasno
Jasno
 Veter iz smeri NE
Veter: NE 11 km/h
Temperatura: 23°C
Rosišče: 17°C
Vlažnost: 69%
Tlak: 1019 hPa
Stanje: Jasno
Vidljivost: večja od 10 km
2019/08/23 00:30 LDPL 230030Z 05006KT CAVOK 23/17 Q1019
LOWK - Klagenfurt(Civ/M, Austria
Oddaljenost od postaje: NW 76km
Podatki zajeti: 23/08/2019 02:20
Pretežno oblačno
Pretežno oblačno
 Veter iz smeri spremenljiv
Veter: spremenljiv 2 km/h
Temperatura: 19°C
Rosišče: 15°C
Vlažnost: 78%
Tlak: 1026 hPa
Oblačnost: Pretežno oblačno
Vidljivost: 10 km
Podrobnosti o oblakih: Rahlo oblačno 1219 m
Pretežno oblačno 1280 m
2019/08/23 00:20 LOWK 230020Z AUTO VRB01KT 9999 FEW040 BKN042 19/15 Q1026
 
LOWG - Graz (mil/Civ), Austria
Oddaljenost od postaje: NNE 100km
Podatki zajeti: 23/08/2019 02:20
Nevihte
Nevihte
 Veter iz smeri S
Veter: S 4 km/h
Oblačnost: Nevihte
Vidljivost: 10 km
2019/08/23 00:20 LOWG 230020Z AUTO 17002KT 9999 //////CB FEW042 SCT046 BKN048 18/16 Q1025
LOAN - Wr.neustadt East, Austria
Oddaljenost od postaje: NNE 212km
Podatki zajeti: 22/08/2019 20:00
Ni posodobljen
Pretežno oblačno
Pretežno oblačno
 Veter iz smeri spremenljiv
Veter: spremenljiv 4 km/h
Oblačnost: Pretežno oblačno
Podrobnosti o oblakih: Rahlo oblačno 1219 m
Delno oblačno 2743 m
Pretežno oblačno 9144 m
2019/08/22 18:00 LOAN 221800Z VRB02KT 25KM FEW040CU SCT090AC BKN300CI
 
LIPQ - Ronchi Legionari, Italy
Oddaljenost od postaje: SW 35km
Podatki zajeti: 23/08/2019 02:20
Oblačno
Oblačno
 Veter iz smeri spremenljiv
Veter: spremenljiv 2 km/h
Temperatura: 21°C
Rosišče: 17°C
Vlažnost: 78%
Tlak: 1020 hPa
Oblačnost: Oblačno
Vidljivost: 10 km
Podrobnosti o oblakih: Oblačno 4267 m
2019/08/23 00:20 LIPQ 230020Z AUTO VRB01KT 9999 OVC140/// 21/17 Q1020
LIVT - Trieste, Italy
Oddaljenost od postaje: WSW 109km
Podatki zajeti: 23/08/2019 01:55
Rahlo oblačno
Rahlo oblačno
 Veter iz smeri NE
Veter: NE 30 km/h, Sunek vetra: 61 km/h
Temperatura: 24°C
Rosišče: 18°C
Vlažnost: 69%
Tlak: 1019 hPa
Oblačnost: Rahlo oblačno
Vidljivost: 10 km
Podrobnosti o oblakih: Rahlo oblačno 1219 m
2019/08/22 23:55 LIVT 222355Z 04016G33KT 9999 FEW040 24/18 Q1019 RMK BKN SCT120 QUK / QUL / VIS MAR 20 KM VIS MIN 9999
 
LIVO - Tarvisio, Italy
Oddaljenost od postaje: NNW 49km
Podatki zajeti: 22/08/2019 19:55
Ni posodobljen
Delno oblačno
Delno oblačno
 Veter iz smeri calm
Veter: Calm
Temperatura: 18°C
Rosišče: 15°C
Vlažnost: 83%
Tlak: 1024 hPa
Oblačnost: Delno oblačno
Vidljivost: 10 km
Podrobnosti o oblakih: Delno oblačno 975 m
2019/08/22 17:55 LIVO 221755Z 00000KT 9999 SCT032 18/15 Q1024 RMK BKN SCT070 VIS MIN 9999
LIPZ - Venezia/Tessera, Italy
Oddaljenost od postaje: WSW 217km
Podatki zajeti: 23/08/2019 02:20
Delno oblačno
Delno oblačno
 Veter iz smeri E
Veter: E 9 km/h
Temperatura: 22°C
Rosišče: 18°C
Vlažnost: 78%
Tlak: 1021 hPa
Oblačnost: Delno oblačno
Vidljivost: 10 km
Podrobnosti o oblakih: Rahlo oblačno 1067 m
Delno oblačno 2134 m
2019/08/23 00:20 LIPZ 230020Z 10005KT 9999 FEW035 SCT070 22/18 Q1021 TEMPO TSRA
 
LHSM - Balaton, Hungary
Oddaljenost od postaje: ENE 177km
Podatki zajeti: 23/08/2019 02:15
Jasno
Jasno
 Veter iz smeri NW
Veter: NW 9 km/h
Temperatura: 19°C
Rosišče: 17°C
Vlažnost: 88%
Tlak: 1024 hPa
Stanje: Jasno
Vidljivost: večja od 10 km
2019/08/23 00:15 LHSM 230015Z AUTO 32005KT CAVOK 19/17 Q1024